Time;durP1;ratioP1;P1;durP2;ratioP2;P2;SDS_P1;SDS_P2;PMS_P1;PMS_P2;Temp;Humidity;BMP_temperature;BMP_pressure;BME280_temperature;BME280_humidity;BME280_pressure;Samples;Min_cycle;Max_cycle;Signal;HPM_P1;HPM_P2
2024/04/18 00:00:50;;;;;;;6.30;3.83;;;;;;;;;;5414254;26;20250;-84
2024/04/18 00:03:16;;;;;;;7.60;5.07;;;;;;;;;;5413615;26;20236;-84
2024/04/18 00:05:42;;;;;;;7.40;5.40;;;;;;;;;;5414068;26;20252;-84
2024/04/18 00:08:07;;;;;;;7.80;5.27;;;;;;;;;;5413746;26;20265;-84
2024/04/18 00:10:33;;;;;;;7.40;5.57;;;;;;;;;;5413795;26;20218;-83
2024/04/18 00:13:00;;;;;;;8.57;5.93;;;;;;;;;;5413766;26;20270;-84
2024/04/18 00:15:26;;;;;;;7.83;5.20;;;;;;;;;;5413278;26;20602;-84
2024/04/18 00:17:52;;;;;;;9.10;7.03;;;;;;;;;;5413844;26;20259;-84
2024/04/18 00:20:18;;;;;;;9.17;5.80;;;;;;;;;;5413594;26;20220;-84
2024/04/18 00:22:44;;;;;;;7.80;5.73;;;;;;;;;;5413808;26;20228;-84
2024/04/18 00:25:10;;;;;;;9.23;5.50;;;;;;;;;;5414070;26;20762;-84
2024/04/18 00:27:36;;;;;;;8.07;5.83;;;;;;;;;;5412069;26;20227;-84
2024/04/18 00:30:02;;;;;;;7.40;5.43;;;;;;;;;;5413746;26;20289;-84
2024/04/18 00:32:28;;;;;;;7.27;5.50;;;;;;;;;;5413394;26;20271;-84
2024/04/18 00:34:54;;;;;;;7.53;5.47;;;;;;;;;;5413151;26;20722;-84
2024/04/18 00:37:20;;;;;;;7.73;5.03;;;;;;;;;;5413734;26;20233;-84
2024/04/18 00:39:47;;;;;;;6.77;4.63;;;;;;;;;;5414033;26;20274;-84
2024/04/18 00:42:13;;;;;;;6.83;5.13;;;;;;;;;;5412156;26;20225;-84
2024/04/18 00:44:40;;;;;;;8.07;5.63;;;;;;;;;;5413600;26;20285;-84
2024/04/18 00:47:07;;;;;;;10.63;6.27;;;;;;;;;;5413269;26;20282;-84
2024/04/18 00:49:33;;;;;;;10.23;5.57;;;;;;;;;;5412805;26;20221;-84
2024/04/18 00:52:00;;;;;;;8.03;5.40;;;;;;;;;;5413151;26;20270;-84
2024/04/18 00:54:26;;;;;;;8.50;5.80;;;;;;;;;;5413449;26;20237;-84
2024/04/18 00:56:52;;;;;;;9.13;5.93;;;;;;;;;;5413712;26;20266;-83
2024/04/18 00:59:18;;;;;;;8.53;6.77;;;;;;;;;;5413078;26;20223;-84
2024/04/18 01:01:47;;;;;;;7.03;5.27;;;;;;;;;;5413358;26;20335;-83
2024/04/18 01:04:14;;;;;;;7.73;5.73;;;;;;;;;;5412676;26;20248;-84
2024/04/18 01:06:40;;;;;;;6.47;5.47;;;;;;;;;;5414140;26;20222;-84
2024/04/18 01:09:07;;;;;;;9.33;6.00;;;;;;;;;;5416307;26;20223;-84
2024/04/18 01:11:33;;;;;;;8.87;5.90;;;;;;;;;;5416897;26;20227;-84
2024/04/18 01:13:59;;;;;;;8.10;5.87;;;;;;;;;;5416426;26;20275;-84
2024/04/18 01:16:25;;;;;;;9.27;5.67;;;;;;;;;;5416731;26;20321;-84
2024/04/18 01:18:51;;;;;;;7.57;5.67;;;;;;;;;;5416655;26;20229;-82
2024/04/18 01:21:17;;;;;;;8.20;5.10;;;;;;;;;;5417735;26;20228;-81
2024/04/18 01:23:43;;;;;;;7.17;4.97;;;;;;;;;;5416011;26;20266;-81
2024/04/18 01:26:12;;;;;;;9.93;6.23;;;;;;;;;;5388242;26;20257;-81
2024/04/18 01:28:38;;;;;;;9.93;6.10;;;;;;;;;;5420288;26;20231;-81
2024/04/18 01:31:04;;;;;;;8.90;5.67;;;;;;;;;;5422709;26;20211;-79
2024/04/18 01:33:32;;;;;;;6.47;5.27;;;;;;;;;;5427824;26;20252;-80
2024/04/18 01:35:58;;;;;;;6.97;5.40;;;;;;;;;;5427412;26;20230;-80
2024/04/18 01:38:24;;;;;;;7.60;5.37;;;;;;;;;;5426896;26;20227;-80
2024/04/18 01:40:50;;;;;;;7.50;5.07;;;;;;;;;;5424597;26;20224;-80
2024/04/18 01:43:16;;;;;;;8.43;6.10;;;;;;;;;;5425061;26;20227;-79
2024/04/18 01:45:42;;;;;;;11.17;6.13;;;;;;;;;;5420497;26;20237;-80
2024/04/18 01:48:08;;;;;;;7.33;5.70;;;;;;;;;;5419571;26;20223;-79
2024/04/18 01:50:34;;;;;;;7.13;4.90;;;;;;;;;;5420329;26;20274;-79
2024/04/18 01:53:00;;;;;;;8.47;5.33;;;;;;;;;;5419919;26;20224;-80
2024/04/18 01:55:26;;;;;;;8.23;6.10;;;;;;;;;;5423225;26;20337;-80
2024/04/18 01:57:52;;;;;;;6.83;5.37;;;;;;;;;;5423732;26;20261;-80
2024/04/18 02:00:18;;;;;;;7.67;5.60;;;;;;;;;;5423600;26;20232;-80
2024/04/18 02:02:44;;;;;;;6.43;5.10;;;;;;;;;;5423965;26;20233;-80
2024/04/18 02:05:10;;;;;;;5.77;4.53;;;;;;;;;;5423567;26;20275;-79
2024/04/18 02:07:36;;;;;;;7.30;5.13;;;;;;;;;;5424126;26;20220;-80
2024/04/18 02:10:02;;;;;;;7.00;5.10;;;;;;;;;;5392776;26;20264;-80
2024/04/18 02:12:28;;;;;;;6.10;4.40;;;;;;;;;;5424239;26;20605;-80
2024/04/18 02:14:54;;;;;;;6.07;4.43;;;;;;;;;;5393113;26;20280;-80
2024/04/18 02:17:20;;;;;;;6.60;4.90;;;;;;;;;;5423905;26;20224;-80
2024/04/18 02:19:46;;;;;;;5.67;4.10;;;;;;;;;;5424093;26;20270;-80
2024/04/18 02:22:12;;;;;;;6.30;4.20;;;;;;;;;;5423749;26;20266;-80
2024/04/18 02:24:58;;;;;;;5.10;4.40;;;;;;;;;;5423340;26;20236;-80
2024/04/18 02:27:24;;;;;;;5.83;3.90;;;;;;;;;;5423488;26;20271;-79
2024/04/18 02:29:50;;;;;;;6.63;3.77;;;;;;;;;;5423010;26;20228;-80
2024/04/18 02:32:16;;;;;;;3.70;3.13;;;;;;;;;;5392379;26;20232;-80
2024/04/18 02:34:42;;;;;;;4.57;3.40;;;;;;;;;;5422914;26;20236;-80
2024/04/18 02:37:08;;;;;;;6.73;3.30;;;;;;;;;;5391509;26;20269;-79
2024/04/18 02:39:36;;;;;;;4.57;3.30;;;;;;;;;;5423338;26;20222;-80
2024/04/18 02:42:02;;;;;;;3.80;3.13;;;;;;;;;;5423728;26;20261;-80
2024/04/18 02:44:28;;;;;;;3.83;3.17;;;;;;;;;;5425627;26;20233;-80
2024/04/18 02:46:54;;;;;;;4.07;3.13;;;;;;;;;;5393457;26;20239;-80
2024/04/18 02:49:21;;;;;;;4.10;3.13;;;;;;;;;;5424163;26;20266;-80
2024/04/18 02:51:47;;;;;;;3.60;2.67;;;;;;;;;;5423154;26;20222;-80
2024/04/18 02:54:13;;;;;;;4.20;3.23;;;;;;;;;;5422502;26;20359;-80
2024/04/18 02:56:40;;;;;;;4.67;3.07;;;;;;;;;;5422840;26;20274;-80
2024/04/18 02:59:06;;;;;;;4.30;3.30;;;;;;;;;;5423002;26;20255;-80
2024/04/18 03:01:32;;;;;;;4.13;2.90;;;;;;;;;;5422683;26;20742;-79
2024/04/18 03:03:58;;;;;;;4.77;3.40;;;;;;;;;;5423799;26;20259;-79
2024/04/18 03:06:25;;;;;;;3.20;2.90;;;;;;;;;;5421431;26;20220;-79
2024/04/18 03:08:51;;;;;;;4.27;2.80;;;;;;;;;;5422858;26;20235;-79
2024/04/18 03:11:17;;;;;;;3.10;2.50;;;;;;;;;;5422577;26;20224;-79
2024/04/18 03:13:43;;;;;;;4.03;2.70;;;;;;;;;;5418300;26;20224;-79
2024/04/18 03:16:09;;;;;;;5.63;2.90;;;;;;;;;;5415325;26;20325;-78
2024/04/18 03:18:35;;;;;;;3.57;2.50;;;;;;;;;;5385162;26;20225;-78
2024/04/18 03:21:01;;;;;;;3.60;2.87;;;;;;;;;;5384957;26;20233;-79
2024/04/18 03:23:27;;;;;;;3.83;3.10;;;;;;;;;;5414889;26;20274;-79
2024/04/18 03:25:53;;;;;;;3.43;2.70;;;;;;;;;;5414932;26;20241;-79
2024/04/18 03:28:19;;;;;;;4.40;3.00;;;;;;;;;;5418292;26;20271;-81
2024/04/18 03:30:45;;;;;;;4.00;3.00;;;;;;;;;;5391921;26;20225;-80
2024/04/18 03:33:11;;;;;;;3.80;2.73;;;;;;;;;;5423099;26;20266;-80
2024/04/18 03:35:38;;;;;;;3.57;2.50;;;;;;;;;;5391151;26;20245;-80
2024/04/18 03:38:04;;;;;;;3.63;2.97;;;;;;;;;;5423145;26;20227;-80
2024/04/18 03:40:30;;;;;;;5.00;2.90;;;;;;;;;;5422697;26;20254;-80
2024/04/18 03:42:56;;;;;;;2.90;2.53;;;;;;;;;;5390658;26;20230;-80
2024/04/18 03:45:22;;;;;;;2.80;2.40;;;;;;;;;;5422044;26;20300;-80
2024/04/18 03:47:51;;;;;;;3.77;3.00;;;;;;;;;;5421534;26;20225;-80
2024/04/18 03:50:17;;;;;;;4.43;3.77;;;;;;;;;;5421186;26;20258;-80
2024/04/18 03:52:43;;;;;;;4.10;3.30;;;;;;;;;;5421066;26;20224;-80
2024/04/18 03:55:09;;;;;;;4.20;3.47;;;;;;;;;;5420255;26;20312;-79
2024/04/18 03:57:36;;;;;;;4.10;3.37;;;;;;;;;;5418608;26;20221;-79
2024/04/18 04:00:02;;;;;;;6.80;3.27;;;;;;;;;;5414184;26;20260;-80
2024/04/18 04:02:30;;;;;;;4.17;3.10;;;;;;;;;;5412628;26;20232;-81
2024/04/18 04:04:56;;;;;;;4.50;2.87;;;;;;;;;;5413491;26;20554;-84
2024/04/18 04:07:22;;;;;;;4.60;3.80;;;;;;;;;;5414180;26;20220;-84
2024/04/18 04:09:48;;;;;;;4.50;2.80;;;;;;;;;;5413578;26;20220;-84
2024/04/18 04:12:14;;;;;;;5.13;3.63;;;;;;;;;;5413756;26;20263;-84
2024/04/18 04:14:40;;;;;;;5.77;3.40;;;;;;;;;;5413692;26;20327;-84
2024/04/18 04:17:06;;;;;;;5.27;3.70;;;;;;;;;;5413089;26;20228;-84
2024/04/18 04:19:32;;;;;;;4.60;3.47;;;;;;;;;;5413876;26;20327;-84
2024/04/18 04:21:58;;;;;;;4.60;3.43;;;;;;;;;;5382388;26;20239;-83
2024/04/18 04:24:24;;;;;;;5.80;4.10;;;;;;;;;;5413856;26;20234;-84
2024/04/18 04:26:51;;;;;;;7.37;4.83;;;;;;;;;;5412992;26;20220;-84
2024/04/18 04:29:17;;;;;;;4.43;4.00;;;;;;;;;;5413417;26;20231;-84
2024/04/18 04:31:43;;;;;;;4.93;4.00;;;;;;;;;;5414121;26;20267;-84
2024/04/18 04:34:10;;;;;;;7.50;4.13;;;;;;;;;;5382337;26;20652;-83
2024/04/18 04:36:36;;;;;;;7.27;4.53;;;;;;;;;;5413480;26;20218;-85
2024/04/18 04:39:02;;;;;;;6.43;4.90;;;;;;;;;;5382288;26;20250;-84
2024/04/18 04:41:28;;;;;;;4.30;3.30;;;;;;;;;;5413394;26;20221;-83
2024/04/18 04:43:54;;;;;;;6.10;5.10;;;;;;;;;;5413028;26;20319;-83
2024/04/18 04:46:20;;;;;;;5.77;4.60;;;;;;;;;;5413617;26;20270;-85
2024/04/18 04:48:46;;;;;;;5.60;4.43;;;;;;;;;;5413637;26;20782;-83
2024/04/18 04:51:14;;;;;;;6.83;4.20;;;;;;;;;;5412846;26;20292;-83
2024/04/18 04:53:39;;;;;;;5.67;4.43;;;;;;;;;;5412930;26;20229;-85
2024/04/18 04:56:06;;;;;;;6.00;4.77;;;;;;;;;;5381742;26;20312;-82
2024/04/18 04:58:32;;;;;;;6.37;4.47;;;;;;;;;;5381688;26;20246;-83
2024/04/18 05:00:58;;;;;;;5.97;4.40;;;;;;;;;;5412086;26;20232;-85
2024/04/18 05:03:24;;;;;;;10.27;5.40;;;;;;;;;;5412818;26;20634;-85
2024/04/18 05:05:50;;;;;;;8.27;5.33;;;;;;;;;;5412754;26;20252;-83
2024/04/18 05:08:17;;;;;;;5.00;4.27;;;;;;;;;;5413239;26;20609;-82
2024/04/18 05:10:44;;;;;;;7.07;4.13;;;;;;;;;;5413046;26;20590;-82
2024/04/18 05:13:13;;;;;;;6.23;4.97;;;;;;;;;;5413327;26;20244;-82
2024/04/18 05:15:39;;;;;;;7.90;6.00;;;;;;;;;;5412940;26;20296;-83
2024/04/18 05:18:06;;;;;;;7.40;5.60;;;;;;;;;;5412729;26;20313;-83
2024/04/18 05:20:32;;;;;;;6.67;5.00;;;;;;;;;;5412707;26;20684;-84
2024/04/18 05:22:58;;;;;;;5.53;4.37;;;;;;;;;;5414292;26;20629;-84
2024/04/18 05:25:24;;;;;;;7.23;4.20;;;;;;;;;;5382584;26;20245;-84
2024/04/18 05:28:09;;;;;;;6.50;4.50;;;;;;;;;;5413137;26;20327;-83
2024/04/18 05:33:20;;;;;;;6.03;4.70;;;;;;;;;;5414129;26;20264;-83
2024/04/18 05:35:46;;;;;;;5.17;4.43;;;;;;;;;;5413663;26;20723;-82
2024/04/18 05:38:12;;;;;;;5.97;4.27;;;;;;;;;;5412990;26;20328;-82
2024/04/18 05:40:38;;;;;;;4.97;3.93;;;;;;;;;;5413394;26;20256;-82
2024/04/18 05:43:04;;;;;;;5.80;4.20;;;;;;;;;;5413269;26;20220;-82
2024/04/18 05:45:30;;;;;;;5.03;4.20;;;;;;;;;;5413192;26;20237;-82
2024/04/18 05:47:56;;;;;;;5.93;4.13;;;;;;;;;;5413052;26;20333;-82
2024/04/18 05:50:22;;;;;;;5.83;4.20;;;;;;;;;;5413731;26;20267;-82
2024/04/18 05:52:48;;;;;;;6.57;4.07;;;;;;;;;;5412851;26;20333;-83
2024/04/18 05:55:14;;;;;;;5.83;4.40;;;;;;;;;;5412884;26;20271;-82
2024/04/18 05:57:41;;;;;;;6.30;4.23;;;;;;;;;;5412664;26;20274;-82
2024/04/18 06:00:07;;;;;;;4.60;3.90;;;;;;;;;;5412830;26;20307;-82
2024/04/18 06:02:33;;;;;;;5.37;4.10;;;;;;;;;;5412338;26;20275;-83
2024/04/18 06:04:59;;;;;;;5.63;4.27;;;;;;;;;;5411915;26;20234;-82
2024/04/18 06:07:25;;;;;;;4.73;3.57;;;;;;;;;;5412813;26;20263;-81
2024/04/18 06:09:51;;;;;;;3.60;3.10;;;;;;;;;;5411874;26;20221;-82
2024/04/18 06:12:17;;;;;;;4.33;3.30;;;;;;;;;;5412409;26;20221;-81
2024/04/18 06:14:43;;;;;;;4.03;3.60;;;;;;;;;;5412043;26;20240;-81
2024/04/18 06:17:09;;;;;;;6.97;3.53;;;;;;;;;;5411887;26;20225;-82
2024/04/18 06:19:35;;;;;;;3.57;3.00;;;;;;;;;;5412353;26;20454;-82
2024/04/18 06:22:01;;;;;;;5.60;4.07;;;;;;;;;;5412243;26;20222;-81
2024/04/18 06:24:29;;;;;;;4.33;3.40;;;;;;;;;;5414897;26;20278;-82
2024/04/18 06:26:55;;;;;;;3.67;2.97;;;;;;;;;;5419640;26;20258;-81
2024/04/18 06:29:21;;;;;;;4.93;3.80;;;;;;;;;;5412749;26;20222;-82
2024/04/18 06:31:47;;;;;;;3.83;3.43;;;;;;;;;;5413390;26;20221;-82
2024/04/18 06:34:13;;;;;;;4.67;2.93;;;;;;;;;;5412890;26;20310;-82
2024/04/18 06:36:39;;;;;;;3.80;3.30;;;;;;;;;;5412101;26;20225;-82
2024/04/18 06:39:07;;;;;;;3.67;3.10;;;;;;;;;;5412927;26;20221;-82
2024/04/18 06:41:34;;;;;;;3.33;3.03;;;;;;;;;;5416196;26;20221;-82
2024/04/18 06:44:01;;;;;;;3.77;3.20;;;;;;;;;;5415805;26;20283;-82
2024/04/18 06:46:27;;;;;;;4.53;3.90;;;;;;;;;;5416184;26;20222;-82
2024/04/18 06:48:54;;;;;;;3.73;3.07;;;;;;;;;;5416859;26;20712;-83
2024/04/18 06:51:20;;;;;;;3.30;2.90;;;;;;;;;;5416196;26;20221;-82
2024/04/18 06:53:46;;;;;;;3.50;3.17;;;;;;;;;;5415825;26;20299;-83
2024/04/18 06:56:12;;;;;;;4.67;2.97;;;;;;;;;;5416220;26;20294;-82
2024/04/18 06:58:38;;;;;;;3.20;2.47;;;;;;;;;;5384970;26;20214;-82
2024/04/18 07:01:05;;;;;;;3.70;2.70;;;;;;;;;;5415889;26;20427;-82
2024/04/18 07:03:31;;;;;;;3.80;3.10;;;;;;;;;;5415604;26;20218;-82
2024/04/18 07:05:58;;;;;;;2.83;2.60;;;;;;;;;;5415370;26;20816;-82
2024/04/18 07:08:24;;;;;;;3.00;2.60;;;;;;;;;;5415489;26;20218;-82
2024/04/18 07:10:51;;;;;;;3.17;2.83;;;;;;;;;;5414760;26;20273;-82
2024/04/18 07:13:17;;;;;;;6.00;3.87;;;;;;;;;;5384162;26;20222;-82
2024/04/18 07:15:43;;;;;;;3.97;3.13;;;;;;;;;;5415237;26;20278;-82
2024/04/18 07:18:09;;;;;;;3.60;2.80;;;;;;;;;;5415649;26;20217;-82
2024/04/18 07:20:35;;;;;;;3.17;2.83;;;;;;;;;;5414167;26;20282;-82
2024/04/18 07:23:01;;;;;;;3.27;2.83;;;;;;;;;;5415698;26;20264;-82
2024/04/18 07:25:27;;;;;;;3.23;2.93;;;;;;;;;;5414423;26;20570;-82
2024/04/18 07:27:53;;;;;;;3.30;2.53;;;;;;;;;;5414547;26;20230;-81
2024/04/18 07:30:20;;;;;;;2.87;2.40;;;;;;;;;;5414354;26;20268;-82
2024/04/18 07:32:46;;;;;;;2.40;2.10;;;;;;;;;;5414379;26;20327;-82
2024/04/18 07:35:12;;;;;;;3.20;2.40;;;;;;;;;;5382509;26;20327;-83
2024/04/18 07:37:38;;;;;;;2.67;2.47;;;;;;;;;;5413321;26;20225;-83
2024/04/18 07:40:11;;;;;;;3.77;2.87;;;;;;;;;;5414770;26;20463;-82
2024/04/18 07:42:37;;;;;;;2.70;2.50;;;;;;;;;;5413700;26;20262;-82
2024/04/18 07:45:04;;;;;;;6.53;2.57;;;;;;;;;;5413743;26;20234;-82
2024/04/18 07:47:30;;;;;;;2.40;2.20;;;;;;;;;;5414189;26;20228;-82
2024/04/18 07:49:56;;;;;;;2.57;2.37;;;;;;;;;;5413830;26;20661;-82
2024/04/18 07:52:22;;;;;;;2.77;2.37;;;;;;;;;;5412132;26;20224;-81
2024/04/18 07:54:48;;;;;;;3.60;3.20;;;;;;;;;;5413385;26;20273;-81
2024/04/18 07:57:14;;;;;;;3.10;2.80;;;;;;;;;;5381399;26;20219;-82
2024/04/18 07:59:40;;;;;;;3.00;2.70;;;;;;;;;;5413243;26;20222;-82
2024/04/18 08:02:06;;;;;;;2.70;2.50;;;;;;;;;;5457846;21;20270;-83
2024/04/18 08:04:33;;;;;;;3.27;2.93;;;;;;;;;;5475042;26;20651;-84
2024/04/18 08:06:59;;;;;;;3.77;3.17;;;;;;;;;;5453901;26;20227;-83
2024/04/18 08:09:25;;;;;;;3.33;2.80;;;;;;;;;;5453717;26;20248;-83
2024/04/18 08:11:54;;;;;;;3.67;2.73;;;;;;;;;;5422629;26;20230;-84
2024/04/18 08:14:20;;;;;;;3.70;3.10;;;;;;;;;;5453443;26;20238;-83
2024/04/18 08:16:46;;;;;;;3.73;3.07;;;;;;;;;;5452702;26;20276;-83
2024/04/18 08:19:12;;;;;;;4.83;3.20;;;;;;;;;;5452402;26;20711;-84
2024/04/18 08:21:38;;;;;;;4.10;3.00;;;;;;;;;;5451778;26;20333;-84
2024/04/18 08:24:04;;;;;;;4.53;3.27;;;;;;;;;;5451394;26;20236;-83
2024/04/18 08:26:30;;;;;;;4.20;3.37;;;;;;;;;;5451959;26;20222;-84
2024/04/18 08:28:56;;;;;;;2.83;2.60;;;;;;;;;;5454945;26;20224;-84
2024/04/18 08:31:22;;;;;;;6.00;2.93;;;;;;;;;;5422853;26;20228;-84
2024/04/18 08:33:49;;;;;;;3.70;3.40;;;;;;;;;;5452709;26;20217;-83
2024/04/18 08:36:16;;;;;;;3.13;2.70;;;;;;;;;;5454563;26;20263;-84
2024/04/18 08:38:42;;;;;;;3.67;3.37;;;;;;;;;;5454003;26;20259;-84
2024/04/18 08:41:12;;;;;;;4.63;3.83;;;;;;;;;;5455694;26;20217;-83
2024/04/18 08:43:39;;;;;;;3.07;2.77;;;;;;;;;;5454228;26;20250;-84
2024/04/18 08:46:07;;;;;;;3.57;3.00;;;;;;;;;;5423462;26;20265;-84
2024/04/18 08:48:34;;;;;;;4.10;3.50;;;;;;;;;;5452603;26;20333;-84
2024/04/18 08:51:01;;;;;;;4.70;3.67;;;;;;;;;;5423679;26;20284;-83
2024/04/18 08:53:27;;;;;;;3.67;3.27;;;;;;;;;;5453150;26;20226;-84
2024/04/18 08:55:55;;;;;;;3.90;3.50;;;;;;;;;;5452418;26;20274;-83
2024/04/18 08:58:22;;;;;;;3.17;2.87;;;;;;;;;;5451167;26;20217;-83
2024/04/18 09:00:48;;;;;;;2.70;2.50;;;;;;;;;;5421708;26;20225;-84
2024/04/18 09:03:15;;;;;;;3.37;2.90;;;;;;;;;;5452597;26;20230;-84
2024/04/18 09:05:44;;;;;;;4.77;3.07;;;;;;;;;;5452006;26;20353;-83
2024/04/18 09:08:12;;;;;;;3.60;2.77;;;;;;;;;;5455942;26;20275;-84
2024/04/18 09:10:40;;;;;;;3.57;2.83;;;;;;;;;;5452818;26;20221;-85
2024/04/18 09:13:06;;;;;;;3.37;3.07;;;;;;;;;;5456213;26;20220;-83
2024/04/18 09:15:32;;;;;;;2.93;2.63;;;;;;;;;;5457862;26;20234;-84
2024/04/18 09:17:59;;;;;;;3.03;2.70;;;;;;;;;;5454672;26;20230;-85
2024/04/18 09:20:25;;;;;;;3.13;2.80;;;;;;;;;;5454109;26;20600;-84
2024/04/18 09:22:53;;;;;;;4.23;3.20;;;;;;;;;;5452394;26;20304;-84
2024/04/18 09:25:20;;;;;;;4.40;2.80;;;;;;;;;;5451763;26;20251;-85
2024/04/18 09:27:47;;;;;;;2.47;2.27;;;;;;;;;;5452436;26;20328;-84
2024/04/18 09:30:14;;;;;;;2.07;1.97;;;;;;;;;;5451143;26;20262;-85
2024/04/18 09:32:41;;;;;;;3.27;2.47;;;;;;;;;;5452144;26;20229;-86
2024/04/18 09:35:08;;;;;;;3.33;2.33;;;;;;;;;;5452560;26;20267;-84
2024/04/18 09:37:35;;;;;;;3.67;1.90;;;;;;;;;;5454789;26;20226;-84
2024/04/18 09:40:01;;;;;;;2.93;2.70;;;;;;;;;;5449773;26;20748;-86
2024/04/18 09:42:38;;;;;;;2.40;2.20;;;;;;;;;;5454475;26;20258;-85
2024/04/18 09:45:05;;;;;;;3.17;2.33;;;;;;;;;;5422679;26;20234;-85
2024/04/18 09:47:32;;;;;;;2.13;1.93;;;;;;;;;;5452461;26;20257;-85
2024/04/18 09:49:59;;;;;;;2.77;2.57;;;;;;;;;;5453508;26;20591;-84
2024/04/18 09:52:25;;;;;;;2.30;2.10;;;;;;;;;;5452832;26;20256;-84
2024/04/18 09:54:51;;;;;;;2.30;1.90;;;;;;;;;;5417714;26;20244;-82
2024/04/18 09:57:18;;;;;;;2.27;1.97;;;;;;;;;;5449198;26;20227;-83
2024/04/18 09:59:44;;;;;;;2.37;1.90;;;;;;;;;;5416340;26;20245;-83
2024/04/18 10:02:12;;;;;;;2.03;1.90;;;;;;;;;;5453272;26;20417;-83
2024/04/18 10:04:39;;;;;;;2.00;1.80;;;;;;;;;;5423202;26;20382;-82
2024/04/18 10:07:08;;;;;;;2.60;2.10;;;;;;;;;;5451870;26;20263;-82
2024/04/18 10:09:35;;;;;;;3.00;2.40;;;;;;;;;;5447400;26;20802;-81
2024/04/18 10:12:02;;;;;;;2.63;2.20;;;;;;;;;;5445639;26;20723;-81
2024/04/18 10:14:28;;;;;;;3.37;2.33;;;;;;;;;;5447536;26;20635;-82
2024/04/18 10:16:54;;;;;;;3.10;2.60;;;;;;;;;;5450347;26;20383;-82
2024/04/18 10:19:23;;;;;;;3.90;2.60;;;;;;;;;;5418423;26;20260;-80
2024/04/18 10:21:54;;;;;;;3.10;2.50;;;;;;;;;;5450720;26;20260;-81
2024/04/18 10:24:20;;;;;;;3.47;2.87;;;;;;;;;;5450282;26;20649;-82
2024/04/18 10:26:46;;;;;;;5.27;3.10;;;;;;;;;;5450438;26;20753;-82
2024/04/18 10:29:26;;;;;;;3.93;3.13;;;;;;;;;;5450334;26;20232;-81
2024/04/18 10:31:52;;;;;;;4.00;3.20;;;;;;;;;;5451599;26;20201;-83
2024/04/18 10:34:22;;;;;;;3.47;2.53;;;;;;;;;;5450643;26;20739;-83
2024/04/18 10:36:48;;;;;;;3.10;2.63;;;;;;;;;;5451374;26;20259;-82
2024/04/18 10:39:30;;;;;;;2.93;2.70;;;;;;;;;;5450309;26;20211;-82
2024/04/18 10:42:03;;;;;;;3.27;2.50;;;;;;;;;;5450526;26;20220;-82
2024/04/18 10:44:29;;;;;;;2.87;2.40;;;;;;;;;;5450552;26;20283;-81
2024/04/18 10:46:55;;;;;;;3.80;3.10;;;;;;;;;;5450437;26;20293;-82
2024/04/18 10:49:22;;;;;;;3.07;2.80;;;;;;;;;;5450286;26;20644;-83
2024/04/18 10:51:48;;;;;;;2.77;2.57;;;;;;;;;;5451447;26;20318;-82
2024/04/18 10:54:14;;;;;;;3.00;2.73;;;;;;;;;;5449962;26;20563;-84
2024/04/18 10:56:40;;;;;;;2.63;2.43;;;;;;;;;;5450593;26;20266;-82
2024/04/18 10:59:10;;;;;;;3.60;3.30;;;;;;;;;;5452235;26;20221;-84
2024/04/18 11:01:38;;;;;;;3.87;3.27;;;;;;;;;;5450787;26;20352;-83
2024/04/18 11:04:05;;;;;;;4.40;3.43;;;;;;;;;;5449848;26;20236;-83
2024/04/18 11:06:31;;;;;;;3.77;3.37;;;;;;;;;;5449592;26;20224;-82
2024/04/18 11:08:59;;;;;;;3.67;3.00;;;;;;;;;;5447101;26;20358;-83
2024/04/18 11:11:27;;;;;;;2.67;2.37;;;;;;;;;;5415638;26;20559;-83
2024/04/18 11:13:56;;;;;;;3.40;3.10;;;;;;;;;;5446524;26;20269;-82
2024/04/18 11:16:24;;;;;;;2.67;2.47;;;;;;;;;;5447400;26;20224;-82
2024/04/18 11:18:50;;;;;;;2.53;2.33;;;;;;;;;;5448527;26;20225;-83
2024/04/18 11:21:16;;;;;;;2.83;2.63;;;;;;;;;;5448939;26;20680;-84
2024/04/18 11:23:42;;;;;;;2.40;2.20;;;;;;;;;;5447325;26;20220;-84
2024/04/18 11:26:11;;;;;;;3.33;2.55;;;;;;;;;;5447052;26;20321;-84
2024/04/18 11:28:37;;;;;;;2.53;2.33;;;;;;;;;;5448198;26;20345;-82
2024/04/18 11:31:04;;;;;;;2.50;2.30;;;;;;;;;;5450892;26;20219;-84
2024/04/18 11:33:30;;;;;;;3.20;2.43;;;;;;;;;;5445649;26;20224;-80
2024/04/18 11:35:56;;;;;;;2.50;2.30;;;;;;;;;;5444995;26;20313;-80
2024/04/18 11:38:24;;;;;;;2.60;2.40;;;;;;;;;;5447981;26;20184;-81
2024/04/18 11:40:50;;;;;;;2.40;2.20;;;;;;;;;;5447417;26;20260;-81
2024/04/18 11:43:16;;;;;;;3.10;2.80;;;;;;;;;;5448735;26;20213;-81
2024/04/18 11:45:42;;;;;;;2.87;2.60;;;;;;;;;;5449803;26;20235;-82
2024/04/18 11:48:09;;;;;;;2.20;2.00;;;;;;;;;;5418353;26;20266;-82
2024/04/18 11:50:35;;;;;;;3.23;2.50;;;;;;;;;;5449969;26;20220;-82
2024/04/18 11:53:01;;;;;;;3.60;2.53;;;;;;;;;;5450374;26;20270;-82
2024/04/18 11:55:27;;;;;;;2.53;2.33;;;;;;;;;;5450596;26;20237;-82
2024/04/18 11:57:53;;;;;;;3.17;2.30;;;;;;;;;;5450791;26;20225;-82
2024/04/18 12:00:20;;;;;;;2.57;2.30;;;;;;;;;;5450890;26;20229;-81
2024/04/18 12:02:46;;;;;;;2.60;2.40;;;;;;;;;;5452349;26;20249;-82
2024/04/18 12:05:12;;;;;;;3.97;3.07;;;;;;;;;;5453272;26;20630;-82
2024/04/18 12:07:40;;;;;;;4.47;3.43;;;;;;;;;;5422057;26;20226;-82
2024/04/18 12:10:06;;;;;;;2.37;2.17;;;;;;;;;;5421381;26;20263;-83
2024/04/18 12:12:32;;;;;;;3.43;2.60;;;;;;;;;;5452459;26;20260;-82
2024/04/18 12:14:58;;;;;;;3.60;2.50;;;;;;;;;;5451818;26;20559;-82
2024/04/18 12:17:24;;;;;;;2.30;2.10;;;;;;;;;;5451409;26;20264;-82
2024/04/18 12:19:50;;;;;;;1.80;1.70;;;;;;;;;;5450783;26;20261;-83
2024/04/18 12:22:20;;;;;;;2.57;2.10;;;;;;;;;;5451830;26;20227;-84
2024/04/18 12:24:46;;;;;;;2.43;2.23;;;;;;;;;;5420098;26;20237;-84
2024/04/18 12:27:12;;;;;;;2.70;2.07;;;;;;;;;;5448932;26;20335;-83
2024/04/18 12:29:38;;;;;;;1.95;1.77;;;;;;;;;;5448169;26;20224;-82
2024/04/18 12:32:06;;;;;;;3.05;1.70;;;;;;;;;;5418100;26;20216;-81
2024/04/18 12:34:32;;;;;;;2.25;2.05;;;;;;;;;;5448204;26;20244;-82
2024/04/18 12:36:58;;;;;;;1.60;1.50;;;;;;;;;;5448530;26;20572;-81
2024/04/18 12:39:24;;;;;;;1.85;1.75;;;;;;;;;;5448147;26;20256;-80
2024/04/18 12:41:50;;;;;;;1.67;1.30;;;;;;;;;;5447837;26;20220;-81
2024/04/18 12:44:19;;;;;;;2.50;1.70;;;;;;;;;;5448249;26;20814;-81
2024/04/18 12:46:45;;;;;;;1.75;1.50;;;;;;;;;;5447895;26;20731;-80
2024/04/18 12:49:11;;;;;;;1.50;1.40;;;;;;;;;;5447622;26;20547;-80
2024/04/18 12:51:37;;;;;;;1.73;1.63;;;;;;;;;;5447348;26;20332;-80
2024/04/18 12:54:03;;;;;;;1.85;1.60;;;;;;;;;;5446541;26;20858;-82
2024/04/18 12:56:29;;;;;;;2.10;1.80;;;;;;;;;;5447242;26;20666;-81
2024/04/18 12:58:55;;;;;;;3.10;1.97;;;;;;;;;;5447773;26;20307;-81
2024/04/18 13:01:21;;;;;;;2.07;1.97;;;;;;;;;;5447046;26;20235;-81
2024/04/18 13:03:48;;;;;;;2.17;2.07;;;;;;;;;;5448212;26;20751;-81
2024/04/18 13:06:14;;;;;;;2.37;1.93;;;;;;;;;;5447855;26;20259;-81
2024/04/18 13:08:40;;;;;;;3.43;2.20;;;;;;;;;;5447298;26;20722;-81
2024/04/18 13:11:06;;;;;;;2.20;1.87;;;;;;;;;;5447423;26;20233;-81
2024/04/18 13:13:32;;;;;;;1.77;1.30;;;;;;;;;;5448181;26;20221;-81
2024/04/18 13:15:58;;;;;;;1.45;1.35;;;;;;;;;;5448670;26;20271;-81
2024/04/18 13:18:24;;;;;;;0.82;0.82;;;;;;;;;;5447495;26;20232;-81
2024/04/18 13:20:50;;;;;;;1.10;1.00;;;;;;;;;;5447469;26;20331;-81
2024/04/18 13:23:16;;;;;;;1.05;0.90;;;;;;;;;;5447177;26;20323;-82
2024/04/18 13:25:42;;;;;;;0.82;0.82;;;;;;;;;;5447235;26;20228;-82
2024/04/18 13:28:08;;;;;;;1.30;0.90;;;;;;;;;;5446899;26;20224;-81
2024/04/18 13:30:34;;;;;;;0.80;0.80;;;;;;;;;;5445873;26;20220;-79
2024/04/18 13:33:00;;;;;;;1.00;0.90;;;;;;;;;;5446265;26;20758;-79
2024/04/18 13:35:26;;;;;;;0.80;0.80;;;;;;;;;;5445275;26;20232;-78
2024/04/18 13:37:55;;;;;;;2.45;1.17;;;;;;;;;;5447125;26;20228;-78
2024/04/18 13:40:21;;;;;;;1.40;1.30;;;;;;;;;;5445120;26;20280;-78
2024/04/18 13:42:47;;;;;;;1.08;0.90;;;;;;;;;;5444380;26;20251;-80
2024/04/18 13:45:13;;;;;;;1.52;1.00;;;;;;;;;;5446054;26;20328;-81
2024/04/18 13:47:39;;;;;;;0.98;0.98;;;;;;;;;;5447228;26;20733;-80
2024/04/18 13:50:06;;;;;;;1.00;1.00;;;;;;;;;;5448211;26;20240;-81
2024/04/18 13:52:32;;;;;;;1.33;1.23;;;;;;;;;;5452094;26;20550;-80
2024/04/18 13:54:58;;;;;;;1.00;1.00;;;;;;;;;;5417908;26;20236;-79
2024/04/18 13:57:24;;;;;;;1.20;1.20;;;;;;;;;;5450030;26;20217;-80
2024/04/18 13:59:52;;;;;;;1.20;1.10;;;;;;;;;;5451076;26;20220;-80
2024/04/18 14:02:19;;;;;;;1.27;1.13;;;;;;;;;;5483724;21;20297;-86
2024/04/18 14:04:45;;;;;;;1.15;1.02;;;;;;;;;;5384677;26;20224;-87
2024/04/18 14:07:15;;;;;;;1.17;1.08;;;;;;;;;;5417402;26;20324;-88
2024/04/18 14:09:50;;;;;;;0.90;0.90;;;;;;;;;;5418301;26;20662;-87
2024/04/18 14:12:30;;;;;;;1.83;1.10;;;;;;;;;;5405035;26;20249;-86
2024/04/18 14:20:51;;;;;;;1.52;1.42;;;;;;;;;;5387196;26;20257;-87
2024/04/18 14:25:52;;;;;;;1.55;1.45;;;;;;;;;;5380799;26;20242;-80
2024/04/18 14:28:19;;;;;;;3.50;1.40;;;;;;;;;;5357522;26;20241;-79
2024/04/18 14:30:46;;;;;;;1.48;1.25;;;;;;;;;;5380959;26;20219;-79
2024/04/18 14:33:12;;;;;;;1.93;1.30;;;;;;;;;;5380972;26;20214;-79
2024/04/18 14:35:38;;;;;;;1.13;1.10;;;;;;;;;;5380129;26;20262;-79
2024/04/18 14:38:04;;;;;;;1.30;1.20;;;;;;;;;;5380432;26;20217;-79
2024/04/18 14:40:30;;;;;;;1.07;1.00;;;;;;;;;;5380899;26;20218;-80
2024/04/18 14:42:56;;;;;;;1.13;1.03;;;;;;;;;;5380190;26;20222;-80
2024/04/18 14:45:22;;;;;;;1.10;1.00;;;;;;;;;;5380222;26;20226;-80
2024/04/18 14:47:48;;;;;;;1.30;1.20;;;;;;;;;;5348519;26;20294;-82
2024/04/18 14:50:14;;;;;;;1.30;1.20;;;;;;;;;;5347788;26;20220;-80